Página principal
METAR-TAF:

METAR-TAF

Aeroportos :

Aeroporto Internacional Rei Abdulaziz

Jidá, Arábia Saudita

latitude: 21-42N, longitude: 039-11E, altura: 15 m

Observação actual do tempo

O boletim foi feito há 1 hora e 9 minutos, às 08:00 UTC
Vento 7 kt de noroeste
Temperatura 26°C
Humidade 48%
Pressão 1016 hPa
Visibilidade 10 km ou mais
sem nuvens abaixo de 1500 metros e sem cumulonimbus

METAR: OEJN 190800Z 32007KT CAVOK 26/14 Q1016 NOSIG

Hora: 12:09 (09:09 UTC)

Previsão

O boletim foi feito há 4 horas e 9 minutos, às 05:00 UTC
Previsão válida de 19 às 06 UTC a 20 às 12 UTC
Vento 6 kt de nor-nordeste
Visibilidade: 7000 m
Poucas nuvensa uma altura de 4000 ft
Tornando-se
de 19 às 06 UTC a 19 às 08 UTC
Vento 14 kt de nor-noroeste

TAF: OEJN 190500Z 1906/2012 03006KT 7000 FEW040 BECMG 1906/1908 33014KT

Observações e previsões do tempo de mais de 4000 aeroportos (mensagens METAR e TAF).

As estações disponíveis são os pontos amarelos e vermelhos sobre o mapa.

Mova o rato sobre o mapa para ver o nome da estação.

Depois clique no ponto para visualizar as observações e previsões meteorológicas.

Para alterar o mapa : clique nos botões verdes com uma cruz preta para aumentar o zoom; no botão verde com uma pitada de zoom; ou nas setas verdes para mapas adjacentes.


METAR-TAF: